Not for real navigation | The accuracy of this data is not assured | See disclaimer for more information
ICAO NAME COUNTRY WIND Kt GUST Kt VIS TEMP/DEW BARO
NZSP Amundsen-Scott South Pole Stat Antarctica 8 0 2400 -55/0 28.83
NZSP 310550Z 06008KT 2400 IC BKN020 M55/ A2883 RMK CLN AIR 07002KT ALL WNDS GRID
CYHK Gjoa Haven Airport Canada 5 0 9999 -38/-41 30.64
CYHK 310627Z AUTO 23005KT 3SM HZ CAVOK M38/M41 A3064 RMK SLP389
CYUS Shepherd Bay, N. W. T. Canada 9 0 9999 -38/-43 30.67
CYUS 310639Z AUTO 15009KT 110V240 ////SM //// FEW002 SCT049 M38/M43 A3067
CWEU Eureka, N. W. T. Canada 3 0 9999 -36/-39 30.28
CWEU 310600Z 09003KT 15SM CAVOK M36/M39 A3028 RMK SLP274
CXSE 12 0 9999 -36/-40 29.92
CXSE 310600Z AUTO 24012KT M36/M40 RMK AO1 SOG 13 0001 SLP352 T13601399

Show more

Close Menu